OIAI  Shahid Asyaee  Airport

Iran

Add Bookmark
ICAO OIAI
Type Airport
Status Operational
Latitude
32° 0' 8" N
32.002399
Longitude
49° 16' 13" E
49.270401
Local (GMT +4.5 ) UTC
May 5, 2016 10:39 pm May 5, 2016 18:09
Sunrise-Sunset Local UTC
Begin Civil Twilight 05:55 am 01:25
Sunrise 06:21 am 01:51
Sunset 07:57 pm 15:27
End Civil Twilight 08:24 pm 15:54
VFR
VFR
MVFR
MVFR
IFR
IFR
LIFR
LIFR
Unknown
Unavailable

Current Weather

METAR Observed VFR
OIAI 051700Z 33010KT 9999 SCT040 BKN100 32/09 Q1009 Thu, May 5, 2016 @ 17:00 UTC
(1 Hour, 9 Minutes ago)
Visual Flight Rules
Wind Visibility Clouds Conditions
330° at 10 knots (19 kph) 10 km or more
  • Scattered at 4,000 ft AGL
  • Broken at 10,000 ft AGL
  • No significant weather
Temperatures Readings Precipitation
Current Temp
32°C
90°F
Dewpoint
9°C
48°F
Humidity 24%
Altimeter 29.79" Hg
Sea Level Pressure 1,009 mb
Field Elevation
372 m
1,220 ft
None Recorded

Additional weather within a 92.6km radius of OIAI

Map ICAO Location
OIAW 88.2km S/SW (213°)
VFR
VFR
MVFR
MVFR
IFR
IFR
LIFR
LIFR
Unknown
Unavailable
-
-

CheckWX.com is intended as a tool to help pilots better visualize weather data. It is not intended as a substitute for an official weather briefing obtained from a Flight Service Station. CheckWX.com does not meet the FAA requirements for an official pre-flight weather briefing. Therefore, it's important that pilots still call and obtain an official FSS pre-flight weather briefing.

© 2007-2016 CheckWX.com
18:09:17 UTC